sensor_id;sensor_type;location;lat;lon;timestamp;pressure;altitude;pressure_sealevel;temperature;humidity
3796;BME280;1913;50.660;7.834;2023-01-13T00:01:13;96308.38;;;8.47;nan
3796;BME280;1913;50.660;7.834;2023-01-13T00:03:39;96305.53;;;8.49;nan
3796;BME280;1913;50.660;7.834;2023-01-13T00:06:05;96298.28;;;8.51;nan
3796;BME280;1913;50.660;7.834;2023-01-13T00:08:32;96302.50;;;8.52;nan
3796;BME280;1913;50.660;7.834;2023-01-13T00:10:58;96294.63;;;8.52;nan
3796;BME280;1913;50.660;7.834;2023-01-13T00:13:23;96296.47;;;8.51;nan
3796;BME280;1913;50.660;7.834;2023-01-13T00:16:00;96297.25;;;8.52;nan
3796;BME280;1913;50.660;7.834;2023-01-13T00:18:26;96292.25;;;8.50;nan
3796;BME280;1913;50.660;7.834;2023-01-13T00:21:04;96293.44;;;8.54;nan
3796;BME280;1913;50.660;7.834;2023-01-13T00:23:32;96296.44;;;8.58;nan
3796;BME280;1913;50.660;7.834;2023-01-13T00:26:00;96291.31;;;8.70;nan
3796;BME280;1913;50.660;7.834;2023-01-13T00:28:27;96287.09;;;8.69;nan
3796;BME280;1913;50.660;7.834;2023-01-13T00:30:52;96275.22;;;8.66;nan
3796;BME280;1913;50.660;7.834;2023-01-13T00:33:20;96267.72;;;8.70;nan
3796;BME280;1913;50.660;7.834;2023-01-13T00:35:54;96288.84;;;8.75;nan
3796;BME280;1913;50.660;7.834;2023-01-13T00:38:20;96275.22;;;8.66;nan
3796;BME280;1913;50.660;7.834;2023-01-13T00:41:04;96281.06;;;8.68;nan
3796;BME280;1913;50.660;7.834;2023-01-13T00:43:31;96271.75;;;8.72;nan
3796;BME280;1913;50.660;7.834;2023-01-13T00:45:57;96264.22;;;8.82;nan
3796;BME280;1913;50.660;7.834;2023-01-13T00:48:23;96255.63;;;8.75;nan
3796;BME280;1913;50.660;7.834;2023-01-13T00:50:57;96248.56;;;8.76;nan
3796;BME280;1913;50.660;7.834;2023-01-13T00:53:22;96251.31;;;8.81;nan
3796;BME280;1913;50.660;7.834;2023-01-13T00:55:48;96247.47;;;8.83;nan
3796;BME280;1913;50.660;7.834;2023-01-13T00:58:14;96251.31;;;8.81;nan
3796;BME280;1913;50.660;7.834;2023-01-13T01:00:40;96253.16;;;8.80;nan
3796;BME280;1913;50.660;7.834;2023-01-13T01:03:07;96252.91;;;8.82;nan
3796;BME280;1913;50.660;7.834;2023-01-13T01:05:38;96257.34;;;8.81;nan
3796;BME280;1913;50.660;7.834;2023-01-13T01:08:04;96260.34;;;8.85;nan
3796;BME280;1913;50.660;7.834;2023-01-13T01:10:29;96250.44;;;8.94;nan
3796;BME280;1913;50.660;7.834;2023-01-13T01:12:55;96267.47;;;8.78;nan
3796;BME280;1913;50.660;7.834;2023-01-13T01:15:21;96258.38;;;8.80;nan
3796;BME280;1913;50.660;7.834;2023-01-13T01:17:46;96255.34;;;8.83;nan
3796;BME280;1913;50.660;7.834;2023-01-13T01:20:12;96259.34;;;8.86;nan
3796;BME280;1913;50.660;7.834;2023-01-13T01:22:37;96236.25;;;8.76;nan
3796;BME280;1913;50.660;7.834;2023-01-13T01:25:03;96246.09;;;8.81;nan
3796;BME280;1913;50.660;7.834;2023-01-13T01:27:29;96243.25;;;8.82;nan
3796;BME280;1913;50.660;7.834;2023-01-13T01:29:54;96245.22;;;8.87;nan
3796;BME280;1913;50.660;7.834;2023-01-13T01:32:20;96244.81;;;8.90;nan
3796;BME280;1913;50.660;7.834;2023-01-13T01:34:45;96235.97;;;8.84;nan
3796;BME280;1913;50.660;7.834;2023-01-13T01:37:11;96240.66;;;8.82;nan
3796;BME280;1913;50.660;7.834;2023-01-13T01:39:36;96235.94;;;8.91;nan
3796;BME280;1913;50.660;7.834;2023-01-13T01:42:02;96233.34;;;8.84;nan
3796;BME280;1913;50.660;7.834;2023-01-13T01:44:55;96228.34;;;8.83;nan
3796;BME280;1913;50.660;7.834;2023-01-13T01:47:23;96233.22;;;8.79;nan
3796;BME280;1913;50.660;7.834;2023-01-13T01:49:49;96222.72;;;8.79;nan
3796;BME280;1913;50.660;7.834;2023-01-13T01:52:25;96219.97;;;8.93;nan
3796;BME280;1913;50.660;7.834;2023-01-13T01:54:57;96215.88;;;8.78;nan
3796;BME280;1913;50.660;7.834;2023-01-13T01:57:53;96232.97;;;8.81;nan
3796;BME280;1913;50.660;7.834;2023-01-13T02:00:23;96215.66;;;8.80;nan
3796;BME280;1913;50.660;7.834;2023-01-13T02:02:50;96224.38;;;8.74;nan
3796;BME280;1913;50.660;7.834;2023-01-13T02:05:16;96218.72;;;8.77;nan
3796;BME280;1913;50.660;7.834;2023-01-13T02:07:43;96222.69;;;8.86;nan
3796;BME280;1913;50.660;7.834;2023-01-13T02:10:14;96210.44;;;8.80;nan
3796;BME280;1913;50.660;7.834;2023-01-13T02:12:41;96204.81;;;8.76;nan
3796;BME280;1913;50.660;7.834;2023-01-13T02:15:11;96198.78;;;8.76;nan
3796;BME280;1913;50.660;7.834;2023-01-13T02:32:42;96184.56;;;8.65;nan
3796;BME280;1913;50.660;7.834;2023-01-13T02:37:47;96210.38;;;8.61;nan
3796;BME280;1913;50.660;7.834;2023-01-13T02:40:27;96258.69;;;8.66;nan
3796;BME280;1913;50.660;7.834;2023-01-13T02:46:07;96259.13;;;8.24;nan
3796;BME280;1913;50.660;7.834;2023-01-13T02:48:36;96259.53;;;8.21;nan
3796;BME280;1913;50.660;7.834;2023-01-13T02:51:07;96257.34;;;7.73;nan
3796;BME280;1913;50.660;7.834;2023-01-13T02:53:45;96270.44;;;7.73;nan
3796;BME280;1913;50.660;7.834;2023-01-13T02:56:13;96267.88;;;7.53;nan
3796;BME280;1913;50.660;7.834;2023-01-13T02:58:42;96278.72;;;7.57;nan
3796;BME280;1913;50.660;7.834;2023-01-13T03:01:10;96270.50;;;7.47;nan
3796;BME280;1913;50.660;7.834;2023-01-13T03:03:35;96277.75;;;7.51;nan
3796;BME280;1913;50.660;7.834;2023-01-13T03:06:31;96263.69;;;7.32;nan
3796;BME280;1913;50.660;7.834;2023-01-13T03:09:10;96266.13;;;7.27;nan
3796;BME280;1913;50.660;7.834;2023-01-13T03:11:47;96262.72;;;7.27;nan
3796;BME280;1913;50.660;7.834;2023-01-13T03:25:11;96270.72;;;7.25;nan
3796;BME280;1913;50.660;7.834;2023-01-13T03:27:53;96264.94;;;7.16;nan
3796;BME280;1913;50.660;7.834;2023-01-13T03:32:58;96271.13;;;7.22;nan
3796;BME280;1913;50.660;7.834;2023-01-13T03:35:32;96262.88;;;7.32;nan
3796;BME280;1913;50.660;7.834;2023-01-13T03:38:06;96269.34;;;7.16;nan
3796;BME280;1913;50.660;7.834;2023-01-13T03:40:39;96245.22;;;7.20;nan
3796;BME280;1913;50.660;7.834;2023-01-13T03:43:18;96243.41;;;7.21;nan
3796;BME280;1913;50.660;7.834;2023-01-13T03:46:09;96258.72;;;6.98;nan
3796;BME280;1913;50.660;7.834;2023-01-13T03:48:39;96241.41;;;7.03;nan
3796;BME280;1913;50.660;7.834;2023-01-13T03:51:08;96253.69;;;6.96;nan
3796;BME280;1913;50.660;7.834;2023-01-13T03:53:48;96254.31;;;6.98;nan
3796;BME280;1913;50.660;7.834;2023-01-13T03:56:42;96245.22;;;7.14;nan
3796;BME280;1913;50.660;7.834;2023-01-13T03:59:14;96234.16;;;7.18;nan
3796;BME280;1913;50.660;7.834;2023-01-13T04:01:56;96224.09;;;7.29;nan
3796;BME280;1913;50.660;7.834;2023-01-13T04:04:50;96213.06;;;7.20;nan
3796;BME280;1913;50.660;7.834;2023-01-13T04:09:49;96214.03;;;7.26;nan
3796;BME280;1913;50.660;7.834;2023-01-13T04:12:27;96231.59;;;7.05;nan
3796;BME280;1913;50.660;7.834;2023-01-13T04:15:18;96239.38;;;7.18;nan
3796;BME280;1913;50.660;7.834;2023-01-13T04:17:45;96243.63;;;7.13;nan
3796;BME280;1913;50.660;7.834;2023-01-13T04:20:11;96251.06;;;7.03;nan
3796;BME280;1913;50.660;7.834;2023-01-13T04:22:36;96250.06;;;7.04;nan
3796;BME280;1913;50.660;7.834;2023-01-13T04:25:02;96277.81;;;6.98;nan
3796;BME280;1913;50.660;7.834;2023-01-13T04:27:27;96281.22;;;7.05;nan
3796;BME280;1913;50.660;7.834;2023-01-13T04:29:54;96282.22;;;6.98;nan
3796;BME280;1913;50.660;7.834;2023-01-13T04:32:19;96277.59;;;7.06;nan
3796;BME280;1913;50.660;7.834;2023-01-13T04:34:45;96268.16;;;6.92;nan
3796;BME280;1913;50.660;7.834;2023-01-13T04:37:10;96267.97;;;6.74;nan
3796;BME280;1913;50.660;7.834;2023-01-13T04:39:36;96280.00;;;6.48;nan
3796;BME280;1913;50.660;7.834;2023-01-13T04:42:02;96288.81;;;6.54;nan
3796;BME280;1913;50.660;7.834;2023-01-13T04:44:28;96277.16;;;6.43;nan
3796;BME280;1913;50.660;7.834;2023-01-13T04:46:56;96280.78;;;6.42;nan
3796;BME280;1913;50.660;7.834;2023-01-13T04:49:23;96225.97;;;6.42;nan
3796;BME280;1913;50.660;7.834;2023-01-13T04:51:48;96194.66;;;6.55;nan
3796;BME280;1913;50.660;7.834;2023-01-13T04:54:14;96183.41;;;6.48;nan
3796;BME280;1913;50.660;7.834;2023-01-13T04:56:40;96214.53;;;6.43;nan
3796;BME280;1913;50.660;7.834;2023-01-13T04:59:11;96219.34;;;6.39;nan
3796;BME280;1913;50.660;7.834;2023-01-13T05:01:37;96241.84;;;6.40;nan
3796;BME280;1913;50.660;7.834;2023-01-13T05:04:03;96244.81;;;6.24;nan
3796;BME280;1913;50.660;7.834;2023-01-13T05:06:29;96252.22;;;6.20;nan
3796;BME280;1913;50.660;7.834;2023-01-13T05:08:55;96254.66;;;6.29;nan
3796;BME280;1913;50.660;7.834;2023-01-13T05:11:21;96250.81;;;6.24;nan
3796;BME280;1913;50.660;7.834;2023-01-13T05:14:06;96239.38;;;6.26;nan
3796;BME280;1913;50.660;7.834;2023-01-13T05:16:52;96248.22;;;6.24;nan
3796;BME280;1913;50.660;7.834;2023-01-13T05:19:29;96255.69;;;6.34;nan
3796;BME280;1913;50.660;7.834;2023-01-13T05:21:56;96255.44;;;6.29;nan
3796;BME280;1913;50.660;7.834;2023-01-13T05:24:40;96257.50;;;6.40;nan
3796;BME280;1913;50.660;7.834;2023-01-13T05:27:24;96228.59;;;6.55;nan
3796;BME280;1913;50.660;7.834;2023-01-13T05:29:50;96239.44;;;6.59;nan
3796;BME280;1913;50.660;7.834;2023-01-13T05:32:16;96240.84;;;6.61;nan
3796;BME280;1913;50.660;7.834;2023-01-13T05:34:41;96252.06;;;6.68;nan
3796;BME280;1913;50.660;7.834;2023-01-13T05:37:07;96233.00;;;6.61;nan
3796;BME280;1913;50.660;7.834;2023-01-13T05:39:35;96223.75;;;6.72;nan
3796;BME280;1913;50.660;7.834;2023-01-13T05:42:19;96240.66;;;6.69;nan
3796;BME280;1913;50.660;7.834;2023-01-13T05:45:04;96244.06;;;6.70;nan
3796;BME280;1913;50.660;7.834;2023-01-13T05:47:32;96246.06;;;6.68;nan
3796;BME280;1913;50.660;7.834;2023-01-13T05:49:58;96252.69;;;6.77;nan
3796;BME280;1913;50.660;7.834;2023-01-13T05:52:23;96241.84;;;6.74;nan
3796;BME280;1913;50.660;7.834;2023-01-13T05:54:49;96241.47;;;6.77;nan
3796;BME280;1913;50.660;7.834;2023-01-13T05:57:15;96257.31;;;6.75;nan
3796;BME280;1913;50.660;7.834;2023-01-13T05:59:41;96253.88;;;6.68;nan
3796;BME280;1913;50.660;7.834;2023-01-13T06:02:07;96256.09;;;6.64;nan
3796;BME280;1913;50.660;7.834;2023-01-13T06:04:32;96254.50;;;6.77;nan
3796;BME280;1913;50.660;7.834;2023-01-13T06:06:58;96245.06;;;6.56;nan
3796;BME280;1913;50.660;7.834;2023-01-13T06:09:23;96254.31;;;6.58;nan
3796;BME280;1913;50.660;7.834;2023-01-13T06:11:49;96264.13;;;6.56;nan
3796;BME280;1913;50.660;7.834;2023-01-13T06:14:14;96261.94;;;6.66;nan
3796;BME280;1913;50.660;7.834;2023-01-13T06:16:41;96268.16;;;6.59;nan
3796;BME280;1913;50.660;7.834;2023-01-13T06:19:07;96269.34;;;6.50;nan
3796;BME280;1913;50.660;7.834;2023-01-13T06:21:34;96277.78;;;6.45;nan
3796;BME280;1913;50.660;7.834;2023-01-13T06:24:00;96284.41;;;6.47;nan
3796;BME280;1913;50.660;7.834;2023-01-13T06:26:26;96280.75;;;6.35;nan
3796;BME280;1913;50.660;7.834;2023-01-13T06:28:53;96278.16;;;6.35;nan
3796;BME280;1913;50.660;7.834;2023-01-13T06:31:18;96283.56;;;6.34;nan
3796;BME280;1913;50.660;7.834;2023-01-13T06:33:48;96288.59;;;6.42;nan
3796;BME280;1913;50.660;7.834;2023-01-13T06:36:18;96274.13;;;6.39;nan
3796;BME280;1913;50.660;7.834;2023-01-13T06:38:50;96282.53;;;6.28;nan
3796;BME280;1913;50.660;7.834;2023-01-13T06:41:19;96284.75;;;6.24;nan
3796;BME280;1913;50.660;7.834;2023-01-13T06:44:07;96285.56;;;6.32;nan
3796;BME280;1913;50.660;7.834;2023-01-13T06:46:33;96285.13;;;6.21;nan
3796;BME280;1913;50.660;7.834;2023-01-13T06:48:59;96277.91;;;6.17;nan
3796;BME280;1913;50.660;7.834;2023-01-13T06:51:25;96279.75;;;6.23;nan
3796;BME280;1913;50.660;7.834;2023-01-13T06:53:51;96282.31;;;6.16;nan
3796;BME280;1913;50.660;7.834;2023-01-13T06:56:16;96286.53;;;6.17;nan
3796;BME280;1913;50.660;7.834;2023-01-13T06:58:42;96292.56;;;6.18;nan
3796;BME280;1913;50.660;7.834;2023-01-13T07:01:07;96294.16;;;6.26;nan
3796;BME280;1913;50.660;7.834;2023-01-13T07:03:33;96303.28;;;6.50;nan
3796;BME280;1913;50.660;7.834;2023-01-13T07:05:58;96309.69;;;6.40;nan
3796;BME280;1913;50.660;7.834;2023-01-13T07:08:26;96307.50;;;6.44;nan
3796;BME280;1913;50.660;7.834;2023-01-13T07:10:51;96315.72;;;6.54;nan
3796;BME280;1913;50.660;7.834;2023-01-13T07:13:17;96307.31;;;6.59;nan
3796;BME280;1913;50.660;7.834;2023-01-13T07:16:04;96305.69;;;6.51;nan
3796;BME280;1913;50.660;7.834;2023-01-13T07:18:32;96302.06;;;6.45;nan
3796;BME280;1913;50.660;7.834;2023-01-13T07:21:00;96309.84;;;6.32;nan
3796;BME280;1913;50.660;7.834;2023-01-13T07:23:27;96315.66;;;6.28;nan
3796;BME280;1913;50.660;7.834;2023-01-13T07:25:57;96305.81;;;6.23;nan
3796;BME280;1913;50.660;7.834;2023-01-13T07:28:23;96322.47;;;6.22;nan
3796;BME280;1913;50.660;7.834;2023-01-13T07:30:50;96333.47;;;6.11;nan
3796;BME280;1913;50.660;7.834;2023-01-13T07:33:15;96328.22;;;6.04;nan
3796;BME280;1913;50.660;7.834;2023-01-13T07:35:43;96315.78;;;6.06;nan
3796;BME280;1913;50.660;7.834;2023-01-13T07:38:09;96329.03;;;6.11;nan
3796;BME280;1913;50.660;7.834;2023-01-13T07:40:35;96327.00;;;6.00;nan
3796;BME280;1913;50.660;7.834;2023-01-13T07:43:01;96326.19;;;5.99;nan
3796;BME280;1913;50.660;7.834;2023-01-13T07:45:45;96335.66;;;6.07;nan
3796;BME280;1913;50.660;7.834;2023-01-13T07:48:11;96337.25;;;6.02;nan
3796;BME280;1913;50.660;7.834;2023-01-13T07:50:37;96332.63;;;6.04;nan
3796;BME280;1913;50.660;7.834;2023-01-13T07:53:02;96325.22;;;6.07;nan
3796;BME280;1913;50.660;7.834;2023-01-13T07:55:28;96326.66;;;6.16;nan
3796;BME280;1913;50.660;7.834;2023-01-13T07:57:54;96329.72;;;6.27;nan
3796;BME280;1913;50.660;7.834;2023-01-13T08:00:20;96334.81;;;6.61;nan
3796;BME280;1913;50.660;7.834;2023-01-13T08:02:45;96330.41;;;6.75;nan
3796;BME280;1913;50.660;7.834;2023-01-13T08:05:11;96332.66;;;6.91;nan
3796;BME280;1913;50.660;7.834;2023-01-13T08:07:36;96339.09;;;7.02;nan
3796;BME280;1913;50.660;7.834;2023-01-13T08:10:03;96337.06;;;7.17;nan
3796;BME280;1913;50.660;7.834;2023-01-13T08:12:28;96333.25;;;7.07;nan
3796;BME280;1913;50.660;7.834;2023-01-13T08:15:13;96338.66;;;6.85;nan
3796;BME280;1913;50.660;7.834;2023-01-13T08:17:38;96340.69;;;6.83;nan
3796;BME280;1913;50.660;7.834;2023-01-13T08:20:04;96334.88;;;6.88;nan
3796;BME280;1913;50.660;7.834;2023-01-13T08:22:30;96333.84;;;6.82;nan
3796;BME280;1913;50.660;7.834;2023-01-13T08:24:58;96356.75;;;6.74;nan
3796;BME280;1913;50.660;7.834;2023-01-13T08:27:24;96347.88;;;6.68;nan
3796;BME280;1913;50.660;7.834;2023-01-13T08:29:50;96350.84;;;6.45;nan
3796;BME280;1913;50.660;7.834;2023-01-13T08:32:15;96347.59;;;6.30;nan
3796;BME280;1913;50.660;7.834;2023-01-13T08:34:41;96350.91;;;6.10;nan
3796;BME280;1913;50.660;7.834;2023-01-13T08:37:07;96357.75;;;6.11;nan
3796;BME280;1913;50.660;7.834;2023-01-13T08:39:32;96359.38;;;6.19;nan
3796;BME280;1913;50.660;7.834;2023-01-13T08:41:58;96364.41;;;6.20;nan
3796;BME280;1913;50.660;7.834;2023-01-13T08:44:25;96367.34;;;6.04;nan
3796;BME280;1913;50.660;7.834;2023-01-13T08:46:52;96381.19;;;6.05;nan
3796;BME280;1913;50.660;7.834;2023-01-13T08:49:17;96375.44;;;6.22;nan
3796;BME280;1913;50.660;7.834;2023-01-13T08:51:43;96387.22;;;6.05;nan
3796;BME280;1913;50.660;7.834;2023-01-13T08:54:09;96386.03;;;6.14;nan
3796;BME280;1913;50.660;7.834;2023-01-13T08:56:35;96384.06;;;6.16;nan
3796;BME280;1913;50.660;7.834;2023-01-13T08:59:01;96398.91;;;6.16;nan
3796;BME280;1913;50.660;7.834;2023-01-13T09:01:27;96394.13;;;6.19;nan
3796;BME280;1913;50.660;7.834;2023-01-13T09:03:53;96395.19;;;6.38;nan
3796;BME280;1913;50.660;7.834;2023-01-13T09:06:19;96403.19;;;6.98;nan
3796;BME280;1913;50.660;7.834;2023-01-13T09:08:45;96408.63;;;7.16;nan
3796;BME280;1913;50.660;7.834;2023-01-13T09:11:18;96404.22;;;7.63;nan
3796;BME280;1913;50.660;7.834;2023-01-13T09:14:03;96401.72;;;8.08;nan
3796;BME280;1913;50.660;7.834;2023-01-13T09:16:29;96406.53;;;8.76;nan
3796;BME280;1913;50.660;7.834;2023-01-13T09:18:55;96402.06;;;8.83;nan
3796;BME280;1913;50.660;7.834;2023-01-13T09:21:21;96411.00;;;9.32;nan
3796;BME280;1913;50.660;7.834;2023-01-13T09:23:47;96407.69;;;9.19;nan
3796;BME280;1913;50.660;7.834;2023-01-13T09:26:15;96415.25;;;9.58;nan
3796;BME280;1913;50.660;7.834;2023-01-13T09:28:44;96414.13;;;9.48;nan
3796;BME280;1913;50.660;7.834;2023-01-13T09:31:09;96415.44;;;9.82;nan
3796;BME280;1913;50.660;7.834;2023-01-13T09:33:35;96424.53;;;10.23;nan
3796;BME280;1913;50.660;7.834;2023-01-13T09:36:19;96424.34;;;9.99;nan
3796;BME280;1913;50.660;7.834;2023-01-13T09:38:45;96417.31;;;10.18;nan
3796;BME280;1913;50.660;7.834;2023-01-13T09:41:21;96404.00;;;10.13;nan
3796;BME280;1913;50.660;7.834;2023-01-13T09:44:13;96419.78;;;10.68;nan
3796;BME280;1913;50.660;7.834;2023-01-13T09:46:46;96421.44;;;10.81;nan
3796;BME280;1913;50.660;7.834;2023-01-13T09:49:18;96415.44;;;10.44;nan
3796;BME280;1913;50.660;7.834;2023-01-13T09:54:37;96431.69;;;10.34;nan
3796;BME280;1913;50.660;7.834;2023-01-13T09:57:14;96434.81;;;9.56;nan
3796;BME280;1913;50.660;7.834;2023-01-13T09:59:40;96428.13;;;9.03;nan
3796;BME280;1913;50.660;7.834;2023-01-13T10:05:16;96442.72;;;8.28;nan
3796;BME280;1913;50.660;7.834;2023-01-13T10:07:51;96449.38;;;8.24;nan
3796;BME280;1913;50.660;7.834;2023-01-13T10:10:58;96441.53;;;8.44;nan
3796;BME280;1913;50.660;7.834;2023-01-13T10:13:29;96437.81;;;8.65;nan
3796;BME280;1913;50.660;7.834;2023-01-13T10:18:35;96435.50;;;9.20;nan
3796;BME280;1913;50.660;7.834;2023-01-13T10:26:38;96416.03;;;9.59;nan
3796;BME280;1913;50.660;7.834;2023-01-13T10:29:22;96419.78;;;9.70;nan
3796;BME280;1913;50.660;7.834;2023-01-13T10:31:51;96423.59;;;9.92;nan
3796;BME280;1913;50.660;7.834;2023-01-13T10:34:16;96431.00;;;10.02;nan
3796;BME280;1913;50.660;7.834;2023-01-13T10:37:00;96426.03;;;10.12;nan
3796;BME280;1913;50.660;7.834;2023-01-13T10:39:46;96414.47;;;9.76;nan
3796;BME280;1913;50.660;7.834;2023-01-13T10:42:17;96432.78;;;9.33;nan
3796;BME280;1913;50.660;7.834;2023-01-13T10:44:58;96406.50;;;8.83;nan
3796;BME280;1913;50.660;7.834;2023-01-13T10:47:31;96416.16;;;8.82;nan
3796;BME280;1913;50.660;7.834;2023-01-13T10:50:22;96431.88;;;8.18;nan
3796;BME280;1913;50.660;7.834;2023-01-13T10:53:00;96416.97;;;8.38;nan
3796;BME280;1913;50.660;7.834;2023-01-13T10:55:30;96425.25;;;8.80;nan
3796;BME280;1913;50.660;7.834;2023-01-13T10:58:16;96427.13;;;9.04;nan
3796;BME280;1913;50.660;7.834;2023-01-13T11:00:42;96423.53;;;8.99;nan
3796;BME280;1913;50.660;7.834;2023-01-13T11:03:20;96421.19;;;8.84;nan
3796;BME280;1913;50.660;7.834;2023-01-13T11:05:49;96425.22;;;8.86;nan
3796;BME280;1913;50.660;7.834;2023-01-13T11:08:17;96439.59;;;8.64;nan
3796;BME280;1913;50.660;7.834;2023-01-13T11:10:50;96424.75;;;8.58;nan
3796;BME280;1913;50.660;7.834;2023-01-13T11:13:31;96433.47;;;8.38;nan
3796;BME280;1913;50.660;7.834;2023-01-13T11:16:13;96422.22;;;8.18;nan
3796;BME280;1913;50.660;7.834;2023-01-13T11:18:57;96430.28;;;8.16;nan
3796;BME280;1913;50.660;7.834;2023-01-13T11:24:34;96436.16;;;8.05;nan
3796;BME280;1913;50.660;7.834;2023-01-13T11:32:15;96450.44;;;8.09;nan
3796;BME280;1913;50.660;7.834;2023-01-13T11:34:43;96449.63;;;8.02;nan
3796;BME280;1913;50.660;7.834;2023-01-13T11:37:30;96457.25;;;8.04;nan
3796;BME280;1913;50.660;7.834;2023-01-13T11:40:04;96448.81;;;8.15;nan
3796;BME280;1913;50.660;7.834;2023-01-13T11:42:47;96437.97;;;7.85;nan
3796;BME280;1913;50.660;7.834;2023-01-13T11:45:22;96445.25;;;7.83;nan
3796;BME280;1913;50.660;7.834;2023-01-13T11:47:51;96461.13;;;7.88;nan
3796;BME280;1913;50.660;7.834;2023-01-13T11:50:31;96456.28;;;7.85;nan
3796;BME280;1913;50.660;7.834;2023-01-13T11:53:08;96462.31;;;7.79;nan
3796;BME280;1913;50.660;7.834;2023-01-13T11:56:07;96466.97;;;7.70;nan
3796;BME280;1913;50.660;7.834;2023-01-13T12:06:41;96464.75;;;7.60;nan
3796;BME280;1913;50.660;7.834;2023-01-13T12:09:21;96460.31;;;7.74;nan
3796;BME280;1913;50.660;7.834;2023-01-13T12:12:02;96464.75;;;7.80;nan
3796;BME280;1913;50.660;7.834;2023-01-13T12:22:47;96474.53;;;8.51;nan
3796;BME280;1913;50.660;7.834;2023-01-13T12:25:22;96449.59;;;8.22;nan
3796;BME280;1913;50.660;7.834;2023-01-13T12:27:59;96465.09;;;8.30;nan
3796;BME280;1913;50.660;7.834;2023-01-13T12:38:48;96460.09;;;8.15;nan
3796;BME280;1913;50.660;7.834;2023-01-13T12:41:23;96454.47;;;8.05;nan
3796;BME280;1913;50.660;7.834;2023-01-13T12:43:55;96452.19;;;8.29;nan
3796;BME280;1913;50.660;7.834;2023-01-13T12:46:53;96455.44;;;8.24;nan
3796;BME280;1913;50.660;7.834;2023-01-13T12:49:29;96449.38;;;8.24;nan
3796;BME280;1913;50.660;7.834;2023-01-13T12:57:16;96499.06;;;7.11;nan
3796;BME280;1913;50.660;7.834;2023-01-13T13:02:38;96490.34;;;6.42;nan
3796;BME280;1913;50.660;7.834;2023-01-13T13:07:50;96485.22;;;6.56;nan
3796;BME280;1913;50.660;7.834;2023-01-13T13:10:27;96481.41;;;6.58;nan
3796;BME280;1913;50.660;7.834;2023-01-13T13:12:57;96465.59;;;6.73;nan
3796;BME280;1913;50.660;7.834;2023-01-13T13:15:43;96478.50;;;6.88;nan
3796;BME280;1913;50.660;7.834;2023-01-13T13:28:43;96488.06;;;7.42;nan
3796;BME280;1913;50.660;7.834;2023-01-13T13:31:24;96497.50;;;7.43;nan
3796;BME280;1913;50.660;7.834;2023-01-13T13:34:29;96488.69;;;7.44;nan
3796;BME280;1913;50.660;7.834;2023-01-13T13:39:50;96492.28;;;7.43;nan
3796;BME280;1913;50.660;7.834;2023-01-13T13:42:43;96496.47;;;7.24;nan
3796;BME280;1913;50.660;7.834;2023-01-13T13:45:29;96503.88;;;7.14;nan
3796;BME280;1913;50.660;7.834;2023-01-13T13:48:23;96500.66;;;7.05;nan
3796;BME280;1913;50.660;7.834;2023-01-13T13:50:51;96501.31;;;7.20;nan
3796;BME280;1913;50.660;7.834;2023-01-13T13:53:25;96510.72;;;7.15;nan
3796;BME280;1913;50.660;7.834;2023-01-13T13:55:57;96510.50;;;7.10;nan
3796;BME280;1913;50.660;7.834;2023-01-13T13:58:25;96499.59;;;6.93;nan
3796;BME280;1913;50.660;7.834;2023-01-13T14:00:52;96512.69;;;7.00;nan
3796;BME280;1913;50.660;7.834;2023-01-13T14:03:22;96494.63;;;6.98;nan
3796;BME280;1913;50.660;7.834;2023-01-13T14:06:00;96511.50;;;7.02;nan
3796;BME280;1913;50.660;7.834;2023-01-13T14:08:38;96521.09;;;6.88;nan
3796;BME280;1913;50.660;7.834;2023-01-13T14:11:24;96520.69;;;6.85;nan
3796;BME280;1913;50.660;7.834;2023-01-13T14:14:05;96514.56;;;6.64;nan
3796;BME280;1913;50.660;7.834;2023-01-13T14:16:32;96529.22;;;6.59;nan
3796;BME280;1913;50.660;7.834;2023-01-13T14:18:59;96536.84;;;6.60;nan
3796;BME280;1913;50.660;7.834;2023-01-13T14:21:28;96522.34;;;6.58;nan
3796;BME280;1913;50.660;7.834;2023-01-13T14:24:03;96534.47;;;6.65;nan
3796;BME280;1913;50.660;7.834;2023-01-13T14:26:38;96543.13;;;6.79;nan
3796;BME280;1913;50.660;7.834;2023-01-13T14:29:04;96547.09;;;6.68;nan
3796;BME280;1913;50.660;7.834;2023-01-13T14:31:30;96552.31;;;6.68;nan
3796;BME280;1913;50.660;7.834;2023-01-13T14:34:00;96539.13;;;6.77;nan
3796;BME280;1913;50.660;7.834;2023-01-13T14:36:36;96543.72;;;6.75;nan
3796;BME280;1913;50.660;7.834;2023-01-13T14:41:43;96548.41;;;6.86;nan
3796;BME280;1913;50.660;7.834;2023-01-13T14:44:29;96552.66;;;6.93;nan
3796;BME280;1913;50.660;7.834;2023-01-13T14:46:58;96560.31;;;6.95;nan
3796;BME280;1913;50.660;7.834;2023-01-13T14:52:28;96562.59;;;7.18;nan
3796;BME280;1913;50.660;7.834;2023-01-13T14:57:34;96571.50;;;7.30;nan
3796;BME280;1913;50.660;7.834;2023-01-13T15:07:52;96592.66;;;7.49;nan
3796;BME280;1913;50.660;7.834;2023-01-13T15:10:21;96599.28;;;7.44;nan
3796;BME280;1913;50.660;7.834;2023-01-13T15:12:49;96613.94;;;7.39;nan
3796;BME280;1913;50.660;7.834;2023-01-13T15:15:22;96627.38;;;7.36;nan
3796;BME280;1913;50.660;7.834;2023-01-13T15:17:49;96624.56;;;7.31;nan
3796;BME280;1913;50.660;7.834;2023-01-13T15:20:16;96631.47;;;7.04;nan
3796;BME280;1913;50.660;7.834;2023-01-13T15:22:42;96638.97;;;6.79;nan
3796;BME280;1913;50.660;7.834;2023-01-13T15:25:08;96650.38;;;6.71;nan
3796;BME280;1913;50.660;7.834;2023-01-13T15:27:37;96669.16;;;6.60;nan
3796;BME280;1913;50.660;7.834;2023-01-13T15:30:19;96699.31;;;6.62;nan
3796;BME280;1913;50.660;7.834;2023-01-13T15:32:45;96710.34;;;6.36;nan
3796;BME280;1913;50.660;7.834;2023-01-13T15:35:15;96690.28;;;5.79;nan
3796;BME280;1913;50.660;7.834;2023-01-13T15:37:43;96697.25;;;5.57;nan
3796;BME280;1913;50.660;7.834;2023-01-13T15:40:21;96697.81;;;5.52;nan
3796;BME280;1913;50.660;7.834;2023-01-13T15:42:46;96705.44;;;5.54;nan
3796;BME280;1913;50.660;7.834;2023-01-13T15:45:31;96707.06;;;5.55;nan
3796;BME280;1913;50.660;7.834;2023-01-13T15:48:19;96698.72;;;5.45;nan
3796;BME280;1913;50.660;7.834;2023-01-13T15:50:45;96705.19;;;5.49;nan
3796;BME280;1913;50.660;7.834;2023-01-13T15:53:12;96712.44;;;5.53;nan
3796;BME280;1913;50.660;7.834;2023-01-13T15:55:40;96714.88;;;5.55;nan
3796;BME280;1913;50.660;7.834;2023-01-13T15:58:06;96711.00;;;5.51;nan
3796;BME280;1913;50.660;7.834;2023-01-13T16:00:32;96716.78;;;5.46;nan
3796;BME280;1913;50.660;7.834;2023-01-13T16:02:57;96721.50;;;5.58;nan
3796;BME280;1913;50.660;7.834;2023-01-13T16:05:24;96729.06;;;5.67;nan
3796;BME280;1913;50.660;7.834;2023-01-13T16:07:50;96723.75;;;5.61;nan
3796;BME280;1913;50.660;7.834;2023-01-13T16:10:20;96724.19;;;5.64;nan
3796;BME280;1913;50.660;7.834;2023-01-13T16:12:46;96714.94;;;5.62;nan
3796;BME280;1913;50.660;7.834;2023-01-13T16:15:13;96718.75;;;5.59;nan
3796;BME280;1913;50.660;7.834;2023-01-13T16:17:40;96727.69;;;5.71;nan
3796;BME280;1913;50.660;7.834;2023-01-13T16:20:12;96727.63;;;5.65;nan
3796;BME280;1913;50.660;7.834;2023-01-13T16:22:38;96725.00;;;5.65;nan